Tuesday, December 18, 2018, 4:50 PM EST
Back to Local

KLGA, New York La Guardia Airport

Location: Astoria, NY, United States Lat: 40.783
Local Time: 4:50 PM EST (21:50 GMT) Lon: -73.883
Time Zone: US/Eastern Elev: 22 ft

Show me the last for .
Show Coded

Time T Td Feel RH Dir Speed Gust Alt SLP Vis Weather Sky Remarks
2018-12-18 15:51 36 15 24 41 310° 20 26 30.08 30.08 10 CLR Peak wind: 29 mph (26 kts) from 320° at 52 min
2018-12-18 14:51 35 14 22 41 310° 20 28 30.05 30.05 10 CLR None
2018-12-18 13:51 35 14 22 41 310° 17 26 30.04 30.03 10 CLR Peak wind: 29 mph (26 kts) from 310° at 22 min
2018-12-18 12:51 34 12 23 39 300° 20 - 30.03 30.03 10 FEW050 6-hr Min Temp (1pm): 30.9°F
6-hr Max Temp (1pm): 35.1°F
2018-12-18 11:51 34 15 23 45 310° 17 - 30.03 30.03 10 FEW050 None
2018-12-18 10:51 32 13 17 44 340° 22 32 30.04 30.03 10 FEW048 Peak wind: 36 mph (32 kts) from 320° at 08 min
2018-12-18 09:51 32 15 17 49 330° 25 32 30.03 30.03 10 FEW045 Peak wind: 35 mph (31 kts) from 320° at 15 min
2018-12-18 08:51 32 15 17 49 330° 23 31 30.00 30.00 10 FEW043 Peak wind: 36 mph (32 kts) from 310° at 28 min
2018-12-18 07:51 32 16 17 51 320° 20 32 29.97 29.97 10 FEW046 Peak wind: 37 mph (33 kts) from 320° at 08 min
2018-12-18 06:51 33 18 17 53 310° 33 41 29.92 29.92 10 FEW050 Peak wind: 43 mph (38 kts) from 310° at 27 min
6-hr Min Temp (7am): 33.1°F
6-hr Max Temp (7am): 39.9°F
2018-12-18 05:51 34 17 19 49 320° 30 38 29.90 29.89 10 SCT050 Peak wind: 42 mph (37 kts) from 330° at 56 min
2018-12-18 04:51 35 17 21 47 330° 24 36 29.88 29.88 10 SCT050 Peak wind: 48 mph (42 kts) from 340° at 16 min
2018-12-18 03:51 36 19 23 49 300° 22 30 29.85 29.85 10 SCT050 Peak wind: 37 mph (33 kts) from 320° at 55 min
2018-12-18 02:51 37 20 23 49 310° 23 36 29.82 29.82 10 SCT050 BKN060 Peak wind: 48 mph (42 kts) from 300° at 25 min
2018-12-18 01:51 38 20 24 47 310° 23 38 29.79 29.79 10 BKN050 Peak wind: 43 mph (38 kts) from 300° at 23 min
2018-12-18 00:51 40 22 26 48 300° 28 45 29.77 29.77 10 BKN050 Peak wind: 44 mph (39 kts) from 300° at 45 min
6-hr Min Temp (1am): 39.9°F
6-hr Max Temp (1am): 43.0°F
2018-12-17 23:51 41 23 29 48 300° 18 36 29.76 29.76 10 OVC055 Peak wind: 40 mph (35 kts) from 290° at 28 min
24-hr Min Temp (12am): 37.9°F
24-hr Max Temp (12am): 46.0°F
2018-12-17 22:51 41 24 28 50 300° 25 40 29.77 29.77 10 BKN050 OVC060 Peak wind: 40 mph (35 kts) from 320° at 43 min
2018-12-17 21:51 42 25 31 50 290° 26 35 29.77 29.77 10 SCT047 BKN060 BKN070 Peak wind: 34 mph (30 kts) from 310° at 45 min
2018-12-17 20:51 42 25 31 50 300° 22 32 29.77 29.77 10 SCT055 OVC065 Peak wind: 39 mph (34 kts) from 290° at 59 min
2018-12-17 19:51 42 25 31 50 310° 29 35 29.77 29.76 10 OVC060 Peak wind: 35 mph (31 kts) from 280° at 00 min
2018-12-17 18:51 43 24 32 46 300° 26 35 29.76 29.76 10 OVC055 Peak wind: 42 mph (37 kts) from 290° at 15 min
6-hr Min Temp (7pm): 43.0°F
6-hr Max Temp (7pm): 46.0°F
2018-12-17 17:51 43 25 31 48 310° 22 38 29.74 29.74 10 OVC050 Peak wind: 37 mph (33 kts) from 310° at 45 min
2018-12-17 16:51 43 26 32 50 310° 18 37 29.73 29.72 10 OVC050 Peak wind: 44 mph (39 kts) from 320° at 03 min

Support USWX by starting your Amazon purchase here.